createdAt,value
2022-12-02T00:00:03.795Z,28.50
2022-12-02T00:01:03.781Z,29.20
2022-12-02T00:02:03.856Z,28.70
2022-12-02T00:03:03.860Z,29.40
2022-12-02T00:04:03.869Z,27.70
2022-12-02T00:05:03.733Z,28.20
2022-12-02T00:06:03.723Z,28.60
2022-12-02T00:07:03.763Z,27.30
2022-12-02T00:08:03.727Z,28.50
2022-12-02T00:09:03.700Z,26.30
2022-12-02T00:10:03.723Z,28.50
2022-12-02T00:11:03.677Z,26.20
2022-12-02T00:12:03.650Z,26.70
2022-12-02T00:13:03.653Z,28.10
2022-12-02T00:14:03.668Z,28.40
2022-12-02T00:15:03.656Z,27.60
2022-12-02T00:16:03.736Z,27.40
2022-12-02T00:17:03.651Z,27.50
2022-12-02T00:18:03.620Z,26.70
2022-12-02T00:19:03.614Z,25.80
2022-12-02T00:20:03.581Z,26.70
2022-12-02T00:21:03.565Z,26.40
2022-12-02T00:22:03.547Z,25.90
2022-12-02T00:23:03.542Z,27.50
2022-12-02T00:24:03.665Z,26.70
2022-12-02T00:25:03.519Z,26.10
2022-12-02T00:26:03.499Z,26.90
2022-12-02T00:27:03.501Z,25.70
2022-12-02T00:28:03.494Z,26.50
2022-12-02T00:29:03.495Z,26.80
2022-12-02T00:30:03.509Z,25.90
2022-12-02T00:31:03.458Z,26.10
2022-12-02T00:32:03.467Z,26.00
2022-12-02T00:33:03.573Z,24.40
2022-12-02T00:34:03.458Z,25.50
2022-12-02T00:35:03.411Z,26.60
2022-12-02T00:36:03.395Z,24.10
2022-12-02T00:37:03.430Z,24.30
2022-12-02T00:38:03.377Z,25.30
2022-12-02T00:39:03.358Z,25.30
2022-12-02T00:40:03.366Z,25.70
2022-12-02T00:41:03.408Z,24.50
2022-12-02T00:42:03.335Z,24.60
2022-12-02T00:43:03.376Z,25.80
2022-12-02T00:44:03.316Z,24.30
2022-12-02T00:45:03.306Z,23.60
2022-12-02T00:46:03.365Z,24.40
2022-12-02T00:47:03.299Z,23.80
2022-12-02T00:48:03.262Z,24.80
2022-12-02T00:49:03.265Z,23.70
2022-12-02T00:50:03.280Z,23.80
2022-12-02T00:51:03.236Z,24.10
2022-12-02T00:52:03.282Z,24.10
2022-12-02T00:53:03.223Z,23.40
2022-12-02T00:54:03.207Z,25.50
2022-12-02T00:55:03.239Z,23.80
2022-12-02T00:56:03.213Z,23.00
2022-12-02T00:57:03.216Z,24.50
2022-12-02T00:58:03.166Z,24.00
2022-12-02T00:59:03.177Z,24.40
2022-12-02T01:00:03.137Z,23.70
2022-12-02T01:01:03.233Z,23.70
2022-12-02T01:02:03.243Z,24.30
2022-12-02T01:03:03.117Z,24.60
2022-12-02T01:04:03.105Z,24.20
2022-12-02T01:05:03.098Z,23.50
2022-12-02T01:06:03.077Z,24.30
2022-12-02T01:07:03.102Z,22.90
2022-12-02T01:08:03.115Z,24.10
2022-12-02T01:09:03.054Z,24.00
2022-12-02T01:10:03.034Z,23.10
2022-12-02T01:11:03.065Z,23.30
2022-12-02T01:12:03.014Z,22.50
2022-12-02T01:13:03.012Z,23.80
2022-12-02T01:14:03.003Z,24.50
2022-12-02T01:15:02.990Z,23.70
2022-12-02T01:16:03.030Z,23.00
2022-12-02T01:17:03.045Z,24.00
2022-12-02T01:18:02.948Z,24.80
2022-12-02T01:19:02.942Z,23.80
2022-12-02T01:20:02.946Z,24.20
2022-12-02T01:21:02.919Z,23.60
2022-12-02T01:22:02.939Z,23.80
2022-12-02T01:23:02.911Z,24.30
2022-12-02T01:24:02.885Z,23.60
2022-12-02T01:25:02.882Z,23.40
2022-12-02T01:26:02.876Z,23.20
2022-12-02T01:27:02.863Z,23.60
2022-12-02T01:28:02.880Z,23.60
2022-12-02T01:29:02.834Z,23.00
2022-12-02T01:30:02.811Z,24.30
2022-12-02T01:31:02.860Z,23.90
2022-12-02T01:32:02.859Z,23.50
2022-12-02T01:33:02.932Z,24.70
2022-12-02T01:34:02.787Z,24.30
2022-12-02T01:35:02.809Z,23.40
2022-12-02T01:36:02.767Z,23.80
2022-12-02T01:37:02.763Z,23.70
2022-12-02T01:38:02.741Z,23.40
2022-12-02T01:39:02.722Z,24.30
2022-12-02T01:40:02.710Z,23.90
2022-12-02T01:41:02.741Z,23.90
2022-12-02T01:42:02.702Z,23.50
2022-12-02T01:43:02.691Z,24.40
2022-12-02T01:44:02.680Z,23.80
2022-12-02T01:45:02.669Z,23.50
2022-12-02T01:46:02.701Z,24.10
2022-12-02T01:47:02.678Z,23.40
2022-12-02T01:48:02.664Z,23.70
2022-12-02T01:49:02.642Z,23.50
2022-12-02T01:50:02.639Z,23.50
2022-12-02T01:51:02.667Z,24.70
2022-12-02T01:52:02.599Z,22.80
2022-12-02T01:53:02.628Z,24.90
2022-12-02T01:54:02.570Z,23.40
2022-12-02T01:55:02.559Z,22.60
2022-12-02T01:56:02.586Z,22.90
2022-12-02T01:57:02.538Z,23.50
2022-12-02T01:58:02.560Z,23.80
2022-12-02T01:59:02.515Z,24.30
2022-12-02T02:00:02.514Z,23.90
2022-12-02T02:01:02.613Z,24.00
2022-12-02T02:02:02.552Z,22.90
2022-12-02T02:03:02.488Z,23.60
2022-12-02T02:04:02.495Z,23.70
2022-12-02T02:05:02.454Z,24.20
2022-12-02T02:06:02.440Z,24.00
2022-12-02T02:07:02.448Z,22.70
2022-12-02T02:08:02.502Z,24.00
2022-12-02T02:09:02.404Z,22.80
2022-12-02T02:10:02.409Z,23.70
2022-12-02T02:11:02.410Z,22.90
2022-12-02T02:12:02.407Z,23.80
2022-12-02T02:13:02.417Z,23.20
2022-12-02T02:14:02.358Z,24.30
2022-12-02T02:15:02.346Z,23.60
2022-12-02T02:16:02.365Z,23.10
2022-12-02T02:17:02.422Z,24.10
2022-12-02T02:18:05.342Z,23.10
2022-12-02T02:19:02.352Z,23.30
2022-12-02T02:20:02.297Z,23.50
2022-12-02T02:21:02.344Z,23.10
2022-12-02T02:22:02.268Z,23.90
2022-12-02T02:23:02.263Z,23.40
2022-12-02T02:24:02.253Z,23.40
2022-12-02T02:25:02.264Z,23.80
2022-12-02T02:26:02.225Z,23.40
2022-12-02T02:27:02.219Z,23.20
2022-12-02T02:28:02.199Z,23.80
2022-12-02T02:29:02.209Z,23.70
2022-12-02T02:30:02.337Z,23.50
2022-12-02T02:31:02.223Z,24.90
2022-12-02T02:32:02.164Z,23.50
2022-12-02T02:33:02.164Z,23.10
2022-12-02T02:34:02.204Z,24.00
2022-12-02T02:35:02.145Z,22.60
2022-12-02T02:36:02.113Z,24.20
2022-12-02T02:37:02.121Z,22.60
2022-12-02T02:38:02.112Z,24.50
2022-12-02T02:39:02.100Z,25.00
2022-12-02T02:40:02.105Z,24.60
2022-12-02T02:41:02.071Z,23.70
2022-12-02T02:42:02.065Z,22.80
2022-12-02T02:43:02.061Z,24.00
2022-12-02T02:44:02.033Z,24.50
2022-12-02T02:45:02.052Z,23.80
2022-12-02T02:46:02.073Z,23.80
2022-12-02T02:47:02.008Z,24.00
2022-12-02T02:48:02.010Z,24.60
2022-12-02T02:49:01.991Z,24.40
2022-12-02T02:50:01.969Z,23.50
2022-12-02T02:51:01.969Z,22.90
2022-12-02T02:52:01.970Z,23.20
2022-12-02T02:53:01.940Z,22.70
2022-12-02T02:54:01.942Z,23.40
2022-12-02T02:55:01.931Z,24.00
2022-12-02T02:56:01.992Z,24.70
2022-12-02T02:57:01.930Z,24.70
2022-12-02T02:58:01.880Z,23.70
2022-12-02T02:59:01.870Z,23.60
2022-12-02T03:00:01.860Z,24.60
2022-12-02T03:01:01.998Z,24.40
2022-12-02T03:02:01.914Z,23.70
2022-12-02T03:03:01.838Z,23.90
2022-12-02T03:04:01.833Z,24.20
2022-12-02T03:05:01.820Z,23.80
2022-12-02T03:06:01.798Z,24.60
2022-12-02T03:07:01.853Z,24.60
2022-12-02T03:08:01.860Z,23.90
2022-12-02T03:09:01.775Z,24.00
2022-12-02T03:10:01.780Z,24.20
2022-12-02T03:11:01.749Z,23.80
2022-12-02T03:12:01.748Z,23.90
2022-12-02T03:13:01.756Z,23.50
2022-12-02T03:14:01.756Z,24.10
2022-12-02T03:15:01.699Z,23.80
2022-12-02T03:16:01.697Z,25.20
2022-12-02T03:17:01.715Z,24.30
2022-12-02T03:18:01.687Z,24.00
2022-12-02T03:19:01.688Z,24.70
2022-12-02T03:20:01.660Z,23.30
2022-12-02T03:21:01.639Z,24.80
2022-12-02T03:22:01.673Z,25.20
2022-12-02T03:23:01.620Z,24.00
2022-12-02T03:24:01.617Z,25.00
2022-12-02T03:25:01.593Z,25.20
2022-12-02T03:26:01.588Z,24.80
2022-12-02T03:27:01.576Z,24.00
2022-12-02T03:28:01.586Z,24.50
2022-12-02T03:29:01.570Z,26.00
2022-12-02T03:30:01.547Z,24.80
2022-12-02T03:31:01.599Z,23.90
2022-12-02T03:32:01.534Z,24.90
2022-12-02T03:33:01.516Z,24.70
2022-12-02T03:34:01.556Z,24.70
2022-12-02T03:35:01.497Z,24.70
2022-12-02T03:36:01.499Z,25.70
2022-12-02T03:37:01.473Z,26.40
2022-12-02T03:38:01.495Z,25.60
2022-12-02T03:39:01.466Z,24.50
2022-12-02T03:40:01.496Z,26.00
2022-12-02T03:41:01.444Z,25.10
2022-12-02T03:42:01.452Z,25.70
2022-12-02T03:43:01.415Z,25.50
2022-12-02T03:44:01.406Z,24.70
2022-12-02T03:45:01.384Z,25.10
2022-12-02T03:46:01.475Z,23.90
2022-12-02T03:47:01.534Z,25.40
2022-12-02T03:48:01.364Z,25.60
2022-12-02T03:49:01.334Z,24.90
2022-12-02T03:50:01.341Z,26.10
2022-12-02T03:51:01.324Z,25.70
2022-12-02T03:52:01.324Z,25.30
2022-12-02T03:53:01.435Z,25.00
2022-12-02T03:55:11.289Z,24.40
2022-12-02T03:56:11.270Z,24.20
2022-12-02T03:57:11.258Z,26.10
2022-12-02T03:58:11.291Z,25.10
2022-12-02T03:59:11.480Z,25.30
2022-12-02T04:00:15.626Z,26.00
2022-12-02T04:01:11.232Z,25.50
2022-12-02T04:02:11.241Z,25.90
2022-12-02T04:03:11.631Z,25.40
2022-12-02T04:04:11.180Z,24.20
2022-12-02T04:05:11.226Z,25.70
2022-12-02T04:06:11.157Z,24.40
2022-12-02T04:07:11.180Z,25.10
2022-12-02T04:08:11.215Z,25.70
2022-12-02T04:09:11.133Z,25.20
2022-12-02T04:10:11.135Z,25.80
2022-12-02T04:11:11.147Z,26.10
2022-12-02T04:12:11.146Z,24.60
2022-12-02T04:13:11.088Z,25.60
2022-12-02T04:14:11.099Z,26.20
2022-12-02T04:15:11.105Z,24.10
2022-12-02T04:16:11.105Z,25.70
2022-12-02T04:17:11.044Z,26.30
2022-12-02T04:18:11.047Z,26.70
2022-12-02T04:19:11.027Z,25.50
2022-12-02T04:20:11.006Z,25.70
2022-12-02T04:21:11.037Z,25.50
2022-12-02T04:22:11.017Z,25.40
2022-12-02T04:23:10.985Z,25.70
2022-12-02T04:24:10.974Z,26.60
2022-12-02T04:25:10.964Z,25.40
2022-12-02T04:26:10.960Z,26.20
2022-12-02T04:27:10.974Z,25.60
2022-12-02T04:28:10.925Z,25.30
2022-12-02T04:29:10.914Z,25.50
2022-12-02T04:30:10.903Z,26.30
2022-12-02T04:31:10.976Z,27.20
2022-12-02T04:32:10.943Z,27.10
2022-12-02T04:33:10.873Z,25.90
2022-12-02T04:34:10.862Z,26.50
2022-12-02T04:35:10.867Z,26.00
2022-12-02T04:36:10.850Z,26.40
2022-12-02T04:37:10.833Z,25.90
2022-12-02T04:38:12.440Z,25.70
2022-12-02T04:39:10.822Z,26.70
2022-12-02T04:40:10.805Z,23.60
2022-12-02T04:41:10.798Z,25.90
2022-12-02T04:42:10.783Z,26.80
2022-12-02T04:43:10.770Z,25.70
2022-12-02T04:44:16.544Z,26.60
2022-12-02T04:45:11.752Z,24.40
2022-12-02T04:46:10.794Z,26.20
2022-12-02T04:47:10.730Z,25.80
2022-12-02T04:48:10.735Z,24.20
2022-12-02T04:49:10.713Z,24.10
2022-12-02T04:50:10.722Z,25.40
2022-12-02T04:51:10.830Z,22.70
2022-12-02T04:52:10.680Z,23.80
2022-12-02T04:53:10.661Z,24.10
2022-12-02T04:54:10.651Z,24.80
2022-12-02T04:55:10.673Z,24.10
2022-12-02T04:56:10.662Z,23.60
2022-12-02T04:57:10.631Z,23.00
2022-12-02T04:58:10.610Z,23.90
2022-12-02T04:59:10.612Z,22.90
2022-12-02T05:00:10.672Z,23.50
2022-12-02T05:01:10.664Z,24.40
2022-12-02T05:02:10.583Z,23.80
2022-12-02T05:03:10.623Z,22.80
2022-12-02T05:04:10.584Z,25.40
2022-12-02T05:05:10.570Z,23.60
2022-12-02T05:06:10.574Z,24.20
2022-12-02T05:07:10.519Z,23.00
2022-12-02T05:08:10.587Z,23.40
2022-12-02T05:09:10.532Z,24.10
2022-12-02T05:10:10.478Z,23.40
2022-12-02T05:11:10.476Z,22.50
2022-12-02T05:12:10.464Z,23.70
2022-12-02T05:13:10.559Z,22.80
2022-12-02T05:14:10.440Z,24.80
2022-12-02T05:15:10.479Z,24.30
2022-12-02T05:16:10.470Z,29.20
2022-12-02T05:17:10.414Z,34.30
2022-12-02T05:18:10.400Z,24.60
2022-12-02T05:19:12.537Z,32.80
2022-12-02T05:20:10.386Z,40.70
2022-12-02T05:21:10.366Z,41.10
2022-12-02T05:22:10.357Z,34.00
2022-12-02T05:23:10.355Z,23.40
2022-12-02T05:24:10.337Z,23.50
2022-12-02T05:25:11.036Z,24.70
2022-12-02T05:26:10.327Z,36.90
2022-12-02T05:27:10.328Z,30.00
2022-12-02T05:28:10.295Z,28.20
2022-12-02T05:29:10.296Z,25.00
2022-12-02T05:30:10.277Z,30.30
2022-12-02T05:31:10.346Z,29.10
2022-12-02T05:32:10.282Z,34.00
2022-12-02T05:33:10.285Z,38.00
2022-12-02T05:34:10.225Z,30.10
2022-12-02T05:35:10.315Z,33.10
2022-12-02T05:36:10.213Z,25.40
2022-12-02T05:37:10.254Z,25.80
2022-12-02T05:38:10.186Z,24.30
2022-12-02T05:39:10.173Z,24.60
2022-12-02T05:40:10.166Z,23.60
2022-12-02T05:41:10.203Z,28.30
2022-12-02T05:42:10.162Z,25.60
2022-12-02T05:43:10.134Z,25.90
2022-12-02T05:44:10.122Z,24.50
2022-12-02T05:45:10.121Z,24.70
2022-12-02T05:46:10.192Z,26.50
2022-12-02T05:47:10.196Z,25.30
2022-12-02T05:48:10.107Z,24.70
2022-12-02T05:49:10.081Z,24.50
2022-12-02T05:50:10.062Z,24.50
2022-12-02T05:51:10.079Z,24.40
2022-12-02T05:52:10.032Z,24.30
2022-12-02T05:53:10.283Z,25.40
2022-12-02T05:54:10.023Z,26.90
2022-12-02T05:55:10.018Z,25.50
2022-12-02T05:56:10.011Z,25.20
2022-12-02T05:57:09.991Z,24.60
2022-12-02T05:58:09.981Z,25.60
2022-12-02T05:59:10.012Z,26.60
2022-12-02T06:00:09.960Z,24.50
2022-12-02T06:01:09.955Z,24.30
2022-12-02T06:02:10.070Z,23.40
2022-12-02T06:03:09.999Z,25.40
2022-12-02T06:04:10.130Z,24.20
2022-12-02T06:05:09.910Z,25.40
2022-12-02T06:06:09.910Z,25.30
2022-12-02T06:07:09.890Z,25.60
2022-12-02T06:08:09.929Z,25.50
2022-12-02T06:09:09.870Z,26.70
2022-12-02T06:10:09.897Z,26.10
2022-12-02T06:11:09.848Z,26.60
2022-12-02T06:12:09.840Z,24.40
2022-12-02T06:13:09.865Z,25.00
2022-12-02T06:14:09.827Z,24.80
2022-12-02T06:15:09.814Z,24.50
2022-12-02T06:16:09.918Z,24.10
2022-12-02T06:17:09.789Z,24.60
2022-12-02T06:18:09.791Z,24.40
2022-12-02T06:19:09.781Z,24.80
2022-12-02T06:20:09.775Z,24.90
2022-12-02T06:21:09.783Z,24.80
2022-12-02T06:22:09.730Z,24.50
2022-12-02T06:23:09.759Z,24.00
2022-12-02T06:24:09.709Z,23.50
2022-12-02T06:25:09.709Z,24.40
2022-12-02T06:26:09.698Z,24.80
2022-12-02T06:27:09.799Z,25.20
2022-12-02T06:28:10.739Z,27.30
2022-12-02T06:29:09.657Z,26.00
2022-12-02T06:30:09.648Z,24.60
2022-12-02T06:31:09.639Z,23.80
2022-12-02T06:32:09.720Z,23.30
2022-12-02T06:33:09.660Z,24.20
2022-12-02T06:34:09.618Z,24.40
2022-12-02T06:35:09.610Z,23.80
2022-12-02T06:36:09.621Z,25.30
2022-12-02T06:37:10.208Z,25.60
2022-12-02T06:38:09.570Z,25.00
2022-12-02T06:39:09.628Z,24.10
2022-12-02T06:41:10.597Z,24.50
2022-12-02T06:42:09.527Z,24.60
2022-12-02T06:43:09.540Z,24.20
2022-12-02T06:44:09.509Z,24.50
2022-12-02T06:45:09.516Z,25.00
2022-12-02T06:46:09.572Z,24.30
2022-12-02T06:47:09.477Z,25.00
2022-12-02T06:48:09.466Z,23.50
2022-12-02T06:49:09.451Z,24.40
2022-12-02T06:50:09.476Z,25.30
2022-12-02T06:51:09.426Z,25.80
2022-12-02T06:52:09.436Z,25.20
2022-12-02T06:53:09.435Z,25.20
2022-12-02T06:54:09.426Z,25.00
2022-12-02T06:55:09.399Z,25.90
2022-12-02T06:56:12.597Z,23.80
2022-12-02T06:57:09.365Z,27.20
2022-12-02T06:58:09.401Z,26.50
2022-12-02T06:59:09.355Z,30.20
2022-12-02T07:00:09.335Z,26.40
2022-12-02T07:01:09.362Z,34.40
2022-12-02T07:02:09.444Z,29.50
2022-12-02T07:03:09.298Z,24.60
2022-12-02T07:04:09.331Z,26.50
2022-12-02T07:05:09.304Z,30.50
2022-12-02T07:06:09.283Z,29.40
2022-12-02T07:07:09.275Z,26.40
2022-12-02T07:08:09.494Z,26.60
2022-12-02T07:09:12.122Z,28.20
2022-12-02T07:10:10.224Z,28.10
2022-12-02T07:11:09.221Z,30.50
2022-12-02T07:12:09.205Z,26.50
2022-12-02T07:13:09.192Z,26.00
2022-12-02T07:14:09.198Z,26.50
2022-12-02T07:15:09.209Z,27.50
2022-12-02T07:16:09.193Z,26.80
2022-12-02T07:17:09.142Z,26.30
2022-12-02T07:18:09.143Z,25.60
2022-12-02T07:19:09.150Z,26.60
2022-12-02T07:20:09.164Z,34.50
2022-12-02T07:21:09.143Z,29.90
2022-12-02T07:22:09.132Z,26.20
2022-12-02T07:23:09.089Z,24.20
2022-12-02T07:24:09.123Z,26.10
2022-12-02T07:25:09.201Z,29.70
2022-12-02T07:26:09.060Z,28.50
2022-12-02T07:27:09.042Z,26.00
2022-12-02T07:28:09.040Z,26.50
2022-12-02T07:29:15.698Z,24.50
2022-12-02T07:30:10.031Z,24.80
2022-12-02T07:31:09.128Z,23.80
2022-12-02T07:32:09.003Z,25.70
2022-12-02T07:33:08.992Z,25.10
2022-12-02T07:34:08.979Z,25.30
2022-12-02T07:35:08.961Z,24.10
2022-12-02T07:36:08.957Z,24.40
2022-12-02T07:37:08.981Z,26.10
2022-12-02T07:38:08.987Z,27.20
2022-12-02T07:39:08.940Z,23.90
2022-12-02T07:40:08.908Z,26.60
2022-12-02T07:41:10.618Z,26.80
2022-12-02T07:42:08.897Z,28.80
2022-12-02T07:43:08.871Z,25.50
2022-12-02T07:44:08.869Z,24.30
2022-12-02T07:45:08.887Z,27.70
2022-12-02T07:46:08.901Z,25.00
2022-12-02T07:47:09.098Z,26.00
2022-12-02T07:48:08.869Z,30.90
2022-12-02T07:49:08.817Z,27.00
2022-12-02T07:50:08.809Z,28.20
2022-12-02T07:51:08.848Z,24.10
2022-12-02T07:52:08.785Z,25.40
2022-12-02T07:53:08.858Z,32.10
2022-12-02T07:54:08.778Z,37.30
2022-12-02T07:55:08.755Z,27.60
2022-12-02T07:56:08.807Z,29.10
2022-12-02T07:57:08.737Z,34.60
2022-12-02T07:58:10.624Z,37.70
2022-12-02T07:59:13.071Z,28.30
2022-12-02T08:00:09.696Z,25.50
2022-12-02T08:01:08.722Z,33.80
2022-12-02T08:02:08.676Z,29.10
2022-12-02T08:03:08.675Z,24.30
2022-12-02T08:04:08.687Z,21.80
2022-12-02T08:05:08.689Z,25.50
2022-12-02T08:06:08.635Z,24.80
2022-12-02T08:07:08.624Z,24.10
2022-12-02T08:08:08.698Z,27.20
2022-12-02T08:09:08.607Z,24.20
2022-12-02T08:10:08.636Z,24.60
2022-12-02T08:11:08.595Z,23.40
2022-12-02T08:12:08.577Z,23.40
2022-12-02T08:13:08.555Z,24.90
2022-12-02T08:14:08.557Z,24.40
2022-12-02T08:15:08.536Z,24.80
2022-12-02T08:16:08.574Z,24.00
2022-12-02T08:17:08.617Z,24.80
2022-12-02T08:18:08.512Z,26.00
2022-12-02T08:19:08.504Z,26.30
2022-12-02T08:20:08.493Z,25.50
2022-12-02T08:21:09.549Z,23.80
2022-12-02T08:22:08.476Z,24.10
2022-12-02T08:23:08.455Z,23.40
2022-12-02T08:24:08.526Z,26.00
2022-12-02T08:25:08.435Z,23.20
2022-12-02T08:26:08.432Z,23.40
2022-12-02T08:27:08.434Z,24.80
2022-12-02T08:28:08.410Z,23.60
2022-12-02T08:29:08.444Z,22.10
2022-12-02T08:30:09.412Z,23.70
2022-12-02T08:31:08.395Z,22.60
2022-12-02T08:32:08.392Z,22.00
2022-12-02T08:33:08.361Z,23.00
2022-12-02T08:34:08.354Z,24.40
2022-12-02T08:35:08.332Z,24.10
2022-12-02T08:36:08.412Z,23.00
2022-12-02T08:37:08.352Z,23.00
2022-12-02T08:38:08.311Z,21.70
2022-12-02T08:39:08.293Z,27.60
2022-12-02T08:40:08.297Z,23.40
2022-12-02T08:41:13.550Z,25.70
2022-12-02T08:42:09.962Z,22.40
2022-12-02T08:43:08.260Z,22.80
2022-12-02T08:44:08.259Z,21.00
2022-12-02T08:45:08.221Z,22.70
2022-12-02T08:46:08.248Z,21.90
2022-12-02T08:47:08.810Z,22.40
2022-12-02T08:48:08.899Z,22.70
2022-12-02T08:49:08.207Z,23.30
2022-12-02T08:50:08.196Z,24.50
2022-12-02T08:51:08.210Z,24.00
2022-12-02T08:52:08.208Z,22.40
2022-12-02T08:53:08.137Z,23.90
2022-12-02T08:54:08.179Z,22.80
2022-12-02T08:55:08.129Z,21.90
2022-12-02T08:56:08.163Z,23.30
2022-12-02T08:57:08.099Z,24.90
2022-12-02T08:58:08.158Z,24.20
2022-12-02T08:59:08.078Z,23.50
2022-12-02T09:00:08.072Z,23.80
2022-12-02T09:01:08.092Z,23.10
2022-12-02T09:02:12.375Z,23.60
2022-12-02T09:03:08.037Z,24.30
2022-12-02T09:04:08.027Z,25.80
2022-12-02T09:05:08.018Z,24.40
2022-12-02T09:06:08.020Z,25.20
2022-12-02T09:07:08.108Z,25.40
2022-12-02T09:08:08.006Z,22.90
2022-12-02T09:09:08.019Z,25.00
2022-12-02T09:10:07.968Z,24.40
2022-12-02T09:11:07.990Z,24.60
2022-12-02T09:12:07.946Z,24.20
2022-12-02T09:13:07.972Z,23.70
2022-12-02T09:14:07.916Z,23.90
2022-12-02T09:15:07.906Z,24.20
2022-12-02T09:16:07.940Z,24.70
2022-12-02T09:17:07.891Z,24.70
2022-12-02T09:18:13.823Z,21.90
2022-12-02T09:19:09.688Z,21.40
2022-12-02T09:20:07.870Z,23.10
2022-12-02T09:21:07.861Z,24.40
2022-12-02T09:22:07.854Z,23.10
2022-12-02T09:23:07.825Z,23.60
2022-12-02T09:24:07.848Z,22.90
2022-12-02T09:25:07.806Z,23.70
2022-12-02T09:26:07.797Z,23.60
2022-12-02T09:27:07.788Z,23.60
2022-12-02T09:28:07.777Z,23.80
2022-12-02T09:29:07.789Z,23.20
2022-12-02T09:30:07.792Z,21.50
2022-12-02T09:31:07.784Z,23.20
2022-12-02T09:32:07.734Z,23.00
2022-12-02T09:33:07.765Z,24.50
2022-12-02T09:34:07.725Z,22.80
2022-12-02T09:35:07.726Z,23.20
2022-12-02T09:36:07.766Z,23.30
2022-12-02T09:37:07.682Z,22.70
2022-12-02T09:38:07.666Z,22.20
2022-12-02T09:39:07.945Z,22.60
2022-12-02T09:40:07.684Z,27.20
2022-12-02T09:41:07.635Z,21.40
2022-12-02T09:42:07.669Z,21.60
2022-12-02T09:43:07.614Z,21.70
2022-12-02T09:44:10.813Z,21.40
2022-12-02T09:45:07.605Z,21.40
2022-12-02T09:46:07.615Z,22.30
2022-12-02T09:47:07.620Z,22.30
2022-12-02T09:48:07.562Z,23.80
2022-12-02T09:49:07.564Z,23.20
2022-12-02T09:50:07.602Z,22.50
2022-12-02T09:51:07.560Z,23.30
2022-12-02T09:52:07.523Z,23.50
2022-12-02T09:53:07.502Z,22.90
2022-12-02T09:55:06.744Z,21.10
2022-12-02T09:56:15.019Z,21.60
2022-12-02T09:57:06.707Z,24.10
2022-12-02T09:58:06.699Z,23.30
2022-12-02T09:59:06.727Z,23.70
2022-12-02T10:00:06.697Z,24.00
2022-12-02T10:01:06.691Z,23.40
2022-12-02T10:02:06.729Z,24.20
2022-12-02T10:03:06.707Z,23.70
2022-12-02T10:04:06.626Z,24.00
2022-12-02T10:05:06.616Z,23.10
2022-12-02T10:06:06.669Z,24.80
2022-12-02T10:07:06.650Z,23.00
2022-12-02T10:08:06.603Z,22.80
2022-12-02T10:09:06.604Z,23.40
2022-12-02T10:10:06.556Z,23.00
2022-12-02T10:11:06.618Z,23.50
2022-12-02T10:12:06.536Z,22.60
2022-12-02T10:13:08.236Z,22.70
2022-12-02T10:14:06.525Z,24.30
2022-12-02T10:15:06.764Z,23.70
2022-12-02T10:16:06.536Z,23.40
2022-12-02T10:17:06.485Z,21.60
2022-12-02T10:18:06.463Z,23.00
2022-12-02T10:19:06.463Z,22.90
2022-12-02T10:20:06.445Z,23.80
2022-12-02T10:21:06.475Z,24.40
2022-12-02T10:22:06.425Z,24.10
2022-12-02T10:23:06.424Z,23.30
2022-12-02T10:24:06.413Z,23.10
2022-12-02T10:25:06.403Z,23.50
2022-12-02T10:26:06.383Z,24.30
2022-12-02T10:27:06.400Z,22.30
2022-12-02T10:28:06.362Z,25.20
2022-12-02T10:29:06.354Z,23.60
2022-12-02T10:30:06.352Z,23.90
2022-12-02T10:31:06.703Z,23.00
2022-12-02T10:32:06.323Z,23.90
2022-12-02T10:33:06.312Z,25.00
2022-12-02T10:34:06.312Z,24.70
2022-12-02T10:35:06.301Z,23.50
2022-12-02T10:36:06.281Z,25.10
2022-12-02T10:37:06.313Z,24.50
2022-12-02T10:38:06.262Z,25.40
2022-12-02T10:39:06.253Z,24.80
2022-12-02T10:40:06.233Z,26.40
2022-12-02T10:41:06.221Z,26.30
2022-12-02T10:42:06.219Z,25.10
2022-12-02T10:43:06.331Z,25.10
2022-12-02T10:44:06.207Z,25.10
2022-12-02T10:45:06.181Z,23.50
2022-12-02T10:46:06.201Z,24.80
2022-12-02T10:47:06.228Z,23.20
2022-12-02T10:48:06.160Z,25.40
2022-12-02T10:49:06.871Z,25.70
2022-12-02T10:50:06.130Z,24.60
2022-12-02T10:51:06.112Z,24.30
2022-12-02T10:52:06.101Z,24.90
2022-12-02T10:53:06.100Z,25.20
2022-12-02T10:54:06.099Z,25.60
2022-12-02T10:55:06.090Z,28.20
2022-12-02T10:56:06.110Z,26.20
2022-12-02T10:57:06.441Z,24.90
2022-12-02T10:58:06.047Z,25.10
2022-12-02T10:59:06.041Z,24.60
2022-12-02T11:00:06.019Z,24.60
2022-12-02T11:01:06.123Z,27.70
2022-12-02T11:02:06.077Z,34.30
2022-12-02T11:03:05.989Z,34.30
2022-12-02T11:04:05.979Z,30.00
2022-12-02T11:05:05.959Z,27.60
2022-12-02T11:06:05.949Z,24.90
2022-12-02T11:07:07.217Z,34.00
2022-12-02T11:08:05.999Z,27.40
2022-12-02T11:09:31.946Z,27.00
2022-12-02T11:10:06.907Z,26.70
2022-12-02T11:11:05.918Z,26.80
2022-12-02T11:12:06.101Z,26.10
2022-12-02T11:13:06.887Z,27.60
2022-12-02T11:14:05.887Z,27.70
2022-12-02T11:15:05.857Z,27.90
2022-12-02T11:16:05.885Z,26.20
2022-12-02T11:17:06.030Z,30.80
2022-12-02T11:18:05.855Z,28.80
2022-12-02T11:19:05.825Z,27.40
2022-12-02T11:20:05.797Z,27.10
2022-12-02T11:21:05.786Z,26.60
2022-12-02T11:22:05.788Z,27.40
2022-12-02T11:23:05.807Z,28.20
2022-12-02T11:24:05.765Z,27.80
2022-12-02T11:25:05.746Z,30.60
2022-12-02T11:26:05.735Z,28.10
2022-12-02T11:27:05.725Z,28.00
2022-12-02T11:28:05.725Z,27.10
2022-12-02T11:29:07.078Z,28.90
2022-12-02T11:30:05.695Z,28.50
2022-12-02T11:31:05.735Z,28.90
2022-12-02T11:32:05.766Z,27.50
2022-12-02T11:33:05.667Z,28.50
2022-12-02T11:34:06.803Z,28.00
2022-12-02T11:35:21.846Z,27.50
2022-12-02T11:36:06.637Z,28.50
2022-12-02T11:37:05.615Z,28.10
2022-12-02T11:38:05.615Z,31.50
2022-12-02T11:39:05.624Z,28.50
2022-12-02T11:40:05.604Z,28.90
2022-12-02T11:41:05.605Z,28.40
2022-12-02T11:42:05.625Z,29.10
2022-12-02T11:43:05.598Z,29.80
2022-12-02T11:44:05.624Z,30.60
2022-12-02T11:45:05.533Z,28.80
2022-12-02T11:46:05.730Z,31.80
2022-12-02T11:47:05.534Z,29.30
2022-12-02T11:48:05.504Z,30.00
2022-12-02T11:49:05.778Z,29.30
2022-12-02T11:50:05.486Z,28.70
2022-12-02T11:51:05.874Z,28.20
2022-12-02T11:52:08.722Z,28.90
2022-12-02T11:53:05.452Z,29.80
2022-12-02T11:54:05.473Z,28.50
2022-12-02T11:55:05.430Z,29.70
2022-12-02T11:56:05.462Z,29.80
2022-12-02T11:57:05.414Z,29.10
2022-12-02T11:58:05.391Z,27.70
2022-12-02T11:59:05.388Z,30.80
2022-12-02T12:00:05.461Z,29.80
2022-12-02T12:01:05.362Z,29.40
2022-12-02T12:02:05.439Z,28.10
2022-12-02T12:03:05.394Z,31.80
2022-12-02T12:04:05.342Z,28.30
2022-12-02T12:05:05.323Z,30.70
2022-12-02T12:06:05.311Z,29.40
2022-12-02T12:07:05.321Z,31.60
2022-12-02T12:08:05.337Z,29.20
2022-12-02T12:09:05.271Z,28.70
2022-12-02T12:10:05.314Z,27.80
2022-12-02T12:11:05.259Z,29.00
2022-12-02T12:12:05.325Z,26.80
2022-12-02T12:13:05.239Z,27.80
2022-12-02T12:14:05.274Z,29.90
2022-12-02T12:15:05.292Z,29.90
2022-12-02T12:16:05.199Z,28.80
2022-12-02T12:17:05.218Z,28.80
2022-12-02T12:18:05.215Z,30.60
2022-12-02T12:19:05.171Z,28.90
2022-12-02T12:20:05.201Z,28.70
2022-12-02T12:21:05.150Z,28.40
2022-12-02T12:22:05.140Z,30.00
2022-12-02T12:23:05.130Z,29.40
2022-12-02T12:24:05.130Z,29.50
2022-12-02T12:25:05.142Z,29.60
2022-12-02T12:26:05.139Z,29.30
2022-12-02T12:27:05.081Z,29.00
2022-12-02T12:28:05.659Z,31.40
2022-12-02T12:29:05.058Z,28.70
2022-12-02T12:30:05.058Z,29.20
2022-12-02T12:31:05.205Z,30.50
2022-12-02T12:32:05.067Z,28.40
2022-12-02T12:33:05.027Z,29.00
2022-12-02T12:34:05.079Z,30.90
2022-12-02T12:35:04.998Z,30.20
2022-12-02T12:36:04.992Z,30.00
2022-12-02T12:37:04.978Z,37.40
2022-12-02T12:38:05.037Z,30.70
2022-12-02T12:39:04.968Z,29.60
2022-12-02T12:40:04.948Z,30.80
2022-12-02T12:41:05.040Z,30.10
2022-12-02T12:42:04.976Z,30.00
2022-12-02T12:43:04.957Z,28.80
2022-12-02T12:44:05.106Z,31.50
2022-12-02T12:45:04.906Z,30.20
2022-12-02T12:46:04.949Z,31.10
2022-12-02T12:47:05.053Z,29.20
2022-12-02T12:48:04.860Z,31.00
2022-12-02T12:49:04.881Z,30.10
2022-12-02T12:50:04.893Z,30.00
2022-12-02T12:51:04.827Z,31.10
2022-12-02T12:52:04.868Z,29.00
2022-12-02T12:53:04.808Z,29.70
2022-12-02T12:54:04.936Z,29.40
2022-12-02T12:55:04.785Z,28.80